Time;durP1;ratioP1;P1;durP2;ratioP2;P2;SDS_P1;SDS_P2;PMS_P1;PMS_P2;Temp;Humidity;BMP_temperature;BMP_pressure;BME280_temperature;BME280_humidity;BME280_pressure;Samples;Min_cycle;Max_cycle;Signal;HPM_P1;HPM_P2
2021/07/22 00:01:28;;;;;;;0.20;0.20;;;;;;;15.16;69.43;97256.28;5034204;28;20042;-67
2021/07/22 00:03:54;;;;;;;0.68;0.57;;;;;;;15.17;69.37;97257.09;5034306;28;20076;-67
2021/07/22 00:06:20;;;;;;;0.17;0.17;;;;;;;15.21;69.16;97258.97;5049311;28;20443;-69
2021/07/22 00:08:46;;;;;;;0.40;0.40;;;;;;;15.26;69.24;97257.22;5034448;28;20056;-68
2021/07/22 00:11:11;;;;;;;0.47;0.40;;;;;;;15.30;68.91;97256.31;5033381;28;20184;-66
2021/07/22 00:13:37;;;;;;;0.20;0.20;;;;;;;15.37;69.00;97258.66;5033930;28;20519;-68
2021/07/22 00:16:03;;;;;;;0.20;0.20;;;;;;;15.48;68.50;97256.56;5034150;28;20095;-67
2021/07/22 00:18:32;;;;;;;1.13;0.60;;;;;;;15.61;68.49;97254.94;5034031;28;20462;-68
2021/07/22 00:20:58;;;;;;;0.28;0.28;;;;;;;15.77;67.91;97254.31;5033979;28;20600;-66
2021/07/22 00:23:24;;;;;;;0.20;0.20;;;;;;;16.28;66.96;97262.72;5033837;28;20049;-67
2021/07/22 00:25:49;;;;;;;0.10;0.10;;;;;;;17.31;64.56;97257.56;5033540;28;20041;-68
2021/07/22 00:28:15;;;;;;;0.20;0.20;;;;;;;18.81;60.76;97263.28;5032406;28;20060;-67
2021/07/22 00:30:41;;;;;;;3.20;1.13;;;;;;;20.33;57.04;97256.66;5033645;28;20396;-67
2021/07/22 00:33:06;;;;;;;0.30;0.30;;;;;;;21.70;54.47;97256.19;5034016;28;20055;-66
2021/07/22 00:35:32;;;;;;;0.35;0.35;;;;;;;22.69;53.08;97254.25;5033976;28;20053;-67
2021/07/22 00:37:58;;;;;;;0.38;0.38;;;;;;;23.56;51.60;97248.34;5033598;28;20041;-67
2021/07/22 00:40:23;;;;;;;0.10;0.10;;;;;;;24.47;50.34;97241.03;5033463;28;20132;-68
2021/07/22 00:43:03;;;;;;;0.20;0.20;;;;;;;25.39;49.24;97237.81;5033042;28;20049;-69
2021/07/22 00:45:30;;;;;;;0.45;0.30;;;;;;;26.16;48.51;97249.25;5033768;28;20052;-70
2021/07/22 00:47:58;;;;;;;0.13;0.13;;;;;;;26.74;48.01;97248.97;5033792;28;20049;-69
2021/07/22 00:50:24;;;;;;;0.30;0.30;;;;;;;27.00;48.15;97258.59;5033211;28;20049;-68
2021/07/22 00:52:50;;;;;;;0.40;0.40;;;;;;;26.89;48.66;97264.06;5031853;28;20042;-69
2021/07/22 00:55:23;;;;;;;0.20;0.20;;;;;;;26.49;50.27;97262.66;5033245;28;20443;-67
2021/07/22 00:57:48;;;;;;;0.52;0.35;;;;;;;26.11;51.18;97270.06;5033493;28;20052;-67
2021/07/22 01:00:14;;;;;;;0.15;0.15;;;;;;;26.00;51.58;97263.44;5033190;28;20049;-66
2021/07/22 01:02:40;;;;;;;0.10;0.10;;;;;;;26.18;51.32;97270.19;5033009;28;20049;-66
2021/07/22 01:05:08;;;;;;;0.10;0.10;;;;;;;26.52;50.86;97256.25;5033143;28;20076;-66
2021/07/22 01:07:34;;;;;;;0.28;0.28;;;;;;;26.86;50.10;97262.00;5033132;28;20052;-67
2021/07/22 01:09:59;;;;;;;0.10;0.10;;;;;;;27.08;50.18;97268.75;5032821;28;20475;-66
2021/07/22 01:12:25;;;;;;;0.60;0.32;;;;;;;26.87;50.62;97260.81;5031117;28;20050;-66
2021/07/22 01:14:51;;;;;;;0.10;0.10;;;;;;;26.76;50.89;97265.50;5032528;28;20056;-65
2021/07/22 01:17:34;;;;;;;0.30;0.30;;;;;;;27.02;50.70;97249.75;5032606;28;20045;-67
2021/07/22 01:20:02;;;;;;;0.25;0.25;;;;;;;27.32;50.01;97248.91;5032703;28;20068;-67
2021/07/22 01:22:30;;;;;;;0.10;0.10;;;;;;;27.76;49.28;97248.22;5031479;28;20042;-67
2021/07/22 01:24:56;;;;;;;0.40;0.40;;;;;;;27.75;49.33;97249.41;5032684;28;20496;-64
2021/07/22 01:27:22;;;;;;;0.47;0.30;;;;;;;27.40;50.02;97253.44;5032692;28;20565;-65
2021/07/22 01:29:47;;;;;;;2.05;0.32;;;;;;;26.95;51.20;97255.28;5032857;28;20045;-64
2021/07/22 01:32:13;;;;;;;0.45;0.20;;;;;;;26.81;51.18;97250.25;5032514;28;20484;-65
2021/07/22 01:34:39;;;;;;;0.45;0.30;;;;;;;27.01;51.10;97259.41;5035615;28;20045;-66
2021/07/22 01:37:04;;;;;;;0.30;0.30;;;;;;;27.73;49.33;97258.25;5038527;28;20124;-65
2021/07/22 01:39:30;;;;;;;0.38;0.38;;;;;;;28.53;47.89;97265.44;5044922;28;20067;-67
2021/07/22 01:41:56;;;;;;;0.25;0.25;;;;;;;29.65;45.90;97264.03;5032759;28;20045;-66
2021/07/22 01:44:21;;;;;;;0.10;0.10;;;;;;;30.61;44.27;97266.56;5032441;28;20443;-66
2021/07/22 01:46:47;;;;;;;0.10;0.10;;;;;;;31.79;42.69;97265.41;5032484;28;20038;-62
2021/07/22 01:49:13;;;;;;;0.10;0.10;;;;;;;32.55;41.71;97259.19;5032152;28;20514;-66
2021/07/22 01:51:38;;;;;;;0.15;0.15;;;;;;;33.16;41.00;97265.06;5032108;28;20056;-67
2021/07/22 01:54:04;;;;;;;0.30;0.30;;;;;;;33.56;40.92;97263.81;5032264;28;20056;-68
2021/07/22 01:56:30;;;;;;;0.85;0.57;;;;;;;33.98;40.16;97273.00;5032390;28;20038;-67
2021/07/22 01:58:56;;;;;;;0.22;0.22;;;;;;;34.29;40.14;97267.25;5032212;28;20034;-67
2021/07/22 02:01:21;;;;;;;0.20;0.20;;;;;;;34.70;40.10;97260.47;5032257;28;20522;-66
2021/07/22 02:03:47;;;;;;;0.20;0.20;;;;;;;35.66;38.25;97262.69;5031910;28;20045;-68
2021/07/22 02:06:15;;;;;;;0.10;0.10;;;;;;;36.32;37.63;97267.75;5032298;28;20487;-67
2021/07/22 02:08:41;;;;;;;1.35;0.32;;;;;;;36.55;37.73;97267.59;5032219;28;20048;-65
2021/07/22 02:11:06;;;;;;;0.30;0.30;;;;;;;36.51;37.89;97272.56;5032847;28;20045;-67
2021/07/22 02:13:32;;;;;;;0.47;0.47;;;;;;;36.24;38.47;97261.41;5031372;28;20057;-66
2021/07/22 02:15:58;;;;;;;0.10;0.10;;;;;;;35.96;39.07;97270.19;5032142;28;20060;-68
2021/07/22 02:18:23;;;;;;;0.60;0.60;;;;;;;36.03;39.02;97274.13;5031820;28;20171;-66
2021/07/22 02:20:49;;;;;;;0.20;0.20;;;;;;;36.19;38.98;97270.50;5032350;28;20041;-66
2021/07/22 02:23:15;;;;;;;0.10;0.10;;;;;;;36.78;38.01;97263.75;5032128;28;20045;-68
2021/07/22 02:25:41;;;;;;;0.10;0.10;;;;;;;37.43;36.83;97258.31;5032113;28;20503;-68
2021/07/22 02:28:07;;;;;;;0.68;0.17;;;;;;;37.88;36.24;97248.78;5032179;28;20044;-68
2021/07/22 02:30:33;;;;;;;0.13;0.13;;;;;;;38.16;35.98;97255.69;5035966;28;20482;-68
2021/07/22 02:32:59;;;;;;;0.10;0.10;;;;;;;38.15;36.04;97248.34;5035904;28;20052;-68
2021/07/22 02:35:25;;;;;;;0.10;0.10;;;;;;;38.36;35.71;97258.31;5035919;28;20057;-69
2021/07/22 02:37:51;;;;;;;0.10;0.10;;;;;;;38.91;35.07;97260.16;5036090;28;20041;-72
2021/07/22 02:40:16;;;;;;;0.10;0.10;;;;;;;39.08;34.63;97263.69;5036208;28;20136;-71
2021/07/22 02:42:42;;;;;;;0.20;0.20;;;;;;;39.15;34.95;97256.88;5035366;28;20041;-70
2021/07/22 02:45:09;;;;;;;0.10;0.10;;;;;;;39.39;34.62;97255.16;5035951;28;20068;-69
2021/07/22 02:47:34;;;;;;;0.17;0.13;;;;;;;39.63;34.28;97263.31;5035165;28;20080;-69
2021/07/22 02:50:00;;;;;;;0.10;0.10;;;;;;;39.68;34.34;97264.78;5035723;28;20128;-69
2021/07/22 02:52:26;;;;;;;0.20;0.20;;;;;;;38.70;35.73;97271.13;5035503;28;20564;-68
2021/07/22 02:54:52;;;;;;;1.13;0.30;;;;;;;38.24;36.36;97269.78;5035840;28;20521;-67
2021/07/22 02:57:17;;;;;;;0.20;0.20;;;;;;;38.75;35.51;97269.75;5035766;28;20042;-68
2021/07/22 02:59:43;;;;;;;0.40;0.40;;;;;;;39.54;34.40;97269.00;5034152;28;20124;-68
2021/07/22 03:02:09;;;;;;;0.30;0.30;;;;;;;39.53;34.16;97276.00;5035017;28;20037;-68
2021/07/22 03:04:34;;;;;;;0.20;0.20;;;;;;;38.87;35.07;97271.78;5035178;28;20159;-67
2021/07/22 03:07:00;;;;;;;0.10;0.10;;;;;;;38.53;35.62;97278.25;5035316;28;20463;-67
2021/07/22 03:09:26;;;;;;;0.10;0.10;;;;;;;38.53;35.59;97281.09;5034058;28;20472;-67
2021/07/22 03:11:52;;;;;;;0.20;0.20;;;;;;;38.29;35.85;97275.75;5034684;28;20460;-69
2021/07/22 03:14:17;;;;;;;0.28;0.28;;;;;;;37.69;36.73;97271.44;5035168;28;20061;-67
2021/07/22 03:16:43;;;;;;;0.30;0.30;;;;;;;37.30;37.40;97269.72;5035321;28;20133;-67
2021/07/22 03:19:09;;;;;;;0.10;0.10;;;;;;;36.83;37.88;97266.06;5035246;28;20107;-66
2021/07/22 03:21:34;;;;;;;0.68;0.38;;;;;;;37.32;36.91;97262.31;5034896;28;20172;-68
2021/07/22 03:24:01;;;;;;;0.10;0.10;;;;;;;37.91;35.60;97265.06;5034975;28;20495;-67
2021/07/22 03:26:27;;;;;;;0.60;0.20;;;;;;;38.76;34.17;97270.56;5035191;28;20034;-68
2021/07/22 03:28:52;;;;;;;0.20;0.20;;;;;;;39.35;33.30;97259.44;5035344;28;20128;-67
2021/07/22 03:31:18;;;;;;;0.20;0.20;;;;;;;39.16;33.56;97256.41;5034746;28;20393;-67
2021/07/22 03:33:44;;;;;;;0.75;0.68;;;;;;;39.03;33.78;97259.34;5034793;28;20090;-67
2021/07/22 03:36:09;;;;;;;0.10;0.10;;;;;;;38.29;35.02;97261.41;5034847;28;20087;-67
2021/07/22 03:38:35;;;;;;;0.10;0.10;;;;;;;36.46;37.81;97261.69;5035178;28;20512;-68
2021/07/22 03:41:01;;;;;;;2.20;0.38;;;;;;;34.63;40.38;97250.00;5035121;28;20041;-67
2021/07/22 03:43:27;;;;;;;0.10;0.10;;;;;;;34.38;40.25;97264.69;5046545;28;20035;-68
2021/07/22 03:45:59;;;;;;;0.10;0.10;;;;;;;35.83;37.96;97243.56;5039202;28;20038;-68
2021/07/22 03:48:25;;;;;;;0.10;0.10;;;;;;;37.60;35.11;97247.56;5034503;28;20037;-67
2021/07/22 03:50:51;;;;;;;0.10;0.10;;;;;;;39.07;32.63;97242.78;5034413;28;20045;-68
2021/07/22 03:53:17;;;;;;;0.20;0.20;;;;;;;40.39;31.06;97231.59;5034683;28;20041;-67
2021/07/22 03:55:42;;;;;;;0.68;0.30;;;;;;;41.53;29.87;97242.25;5034571;28;20491;-68
2021/07/22 03:58:08;;;;;;;0.20;0.20;;;;;;;42.42;28.90;97233.50;5034193;28;20072;-68
2021/07/22 04:00:34;;;;;;;0.10;0.10;;;;;;;43.22;28.02;97233.91;5034394;28;20045;-67
2021/07/22 04:03:06;;;;;;;0.30;0.30;;;;;;;43.98;27.57;97214.53;5034601;28;20048;-69
2021/07/22 04:05:32;;;;;;;0.10;0.10;;;;;;;44.53;27.54;97221.69;5034656;28;20511;-67
2021/07/22 04:07:59;;;;;;;0.10;0.10;;;;;;;45.00;27.14;97213.91;5034367;28;20052;-68
2021/07/22 04:10:27;;;;;;;0.10;0.10;;;;;;;45.53;26.85;97208.97;5033921;28;20041;-69
2021/07/22 04:13:00;;;;;;;0.20;0.20;;;;;;;45.80;26.30;97207.63;5033751;28;20076;-69
2021/07/22 04:15:27;;;;;;;0.10;0.10;;;;;;;46.04;26.58;97211.53;5033721;28;20077;-68
2021/07/22 04:17:54;;;;;;;0.20;0.20;;;;;;;46.14;26.39;97192.63;5033958;28;20072;-68
2021/07/22 04:20:21;;;;;;;0.20;0.20;;;;;;;46.03;26.49;97201.22;5034263;28;20053;-69
2021/07/22 04:22:47;;;;;;;0.30;0.30;;;;;;;46.09;26.90;97202.88;5034074;28;20626;-70
2021/07/22 04:25:13;;;;;;;0.10;0.10;;;;;;;46.21;26.83;97191.38;5033740;28;20137;-70
2021/07/22 04:27:39;;;;;;;0.20;0.20;;;;;;;45.80;27.30;97189.44;5033501;28;20038;-69
2021/07/22 04:30:06;;;;;;;0.10;0.10;;;;;;;45.50;27.35;97180.22;5033529;28;20052;-68
2021/07/22 04:32:31;;;;;;;0.25;0.25;;;;;;;45.13;28.09;97191.16;5032980;28;20128;-68
2021/07/22 04:34:57;;;;;;;0.30;0.30;;;;;;;44.49;28.52;97183.47;5033190;28;20067;-68
2021/07/22 04:37:23;;;;;;;0.30;0.30;;;;;;;44.41;28.42;97181.03;5021674;28;20124;-70
2021/07/22 04:40:28;;;;;;;0.17;0.17;;;;;;;44.81;27.54;97161.28;5022173;28;20102;-69
2021/07/22 04:50:20;;;;;;;0.20;0.20;;;;;;;45.72;26.90;97150.63;5020902;28;20049;-70
2021/07/22 04:56:50;;;;;;;0.17;0.17;;;;;;;44.49;27.87;97132.19;5021574;28;20041;-70
2021/07/22 05:03:19;;;;;;;0.43;0.30;;;;;;;45.23;26.70;97124.38;5022590;28;20126;-68
2021/07/22 05:26:49;;;;;;;0.20;0.20;;;;;;;45.09;26.72;97114.50;5019128;28;20040;-69
2021/07/22 05:29:55;;;;;;;0.20;0.20;;;;;;;44.97;26.81;97122.25;5022156;28;20420;-69
2021/07/22 05:33:00;;;;;;;0.10;0.10;;;;;;;43.73;28.10;97118.44;5022248;28;20492;-68
2021/07/22 05:36:06;;;;;;;0.20;0.20;;;;;;;41.73;30.20;97120.72;5020914;28;20033;-70
2021/07/22 05:39:11;;;;;;;0.10;0.10;;;;;;;40.13;31.85;97110.31;5021435;28;20048;-69
2021/07/22 05:42:17;;;;;;;0.30;0.30;;;;;;;38.78;33.40;97113.13;5019840;28;20041;-69
2021/07/22 05:45:22;;;;;;;0.10;0.10;;;;;;;38.10;33.19;97113.44;5022641;28;20045;-68
2021/07/22 05:51:52;;;;;;;0.13;0.13;;;;;;;35.25;36.37;97115.59;5016048;28;20087;-68
2021/07/22 05:54:57;;;;;;;0.10;0.10;;;;;;;34.08;36.93;97123.16;5026384;28;20037;-68
2021/07/22 05:58:03;;;;;;;0.08;0.08;;;;;;;33.20;37.49;97105.75;5019661;28;20046;-68
2021/07/22 06:01:08;;;;;;;0.13;0.13;;;;;;;32.68;37.73;97104.03;5023026;28;20045;-67
2021/07/22 06:04:14;;;;;;;0.35;0.30;;;;;;;32.24;37.65;97108.53;5025236;28;20052;-68
2021/07/22 06:07:19;;;;;;;0.35;0.35;;;;;;;32.13;36.97;97102.97;5033983;28;20049;-68
2021/07/22 06:10:25;;;;;;;0.10;0.10;;;;;;;31.91;36.86;97099.50;5030568;28;20045;-68
2021/07/22 06:13:30;;;;;;;0.20;0.20;;;;;;;31.58;36.66;97087.63;5038672;28;20049;-68
2021/07/22 06:16:36;;;;;;;0.10;0.10;;;;;;;31.32;36.75;97092.66;5019810;28;20052;-66
2021/07/22 06:19:41;;;;;;;0.20;0.20;;;;;;;31.04;36.59;97077.44;5025815;28;20050;-68
2021/07/22 06:22:47;;;;;;;0.45;0.35;;;;;;;30.78;36.70;97066.63;5032906;28;20408;-67
2021/07/22 06:25:35;;;;;;;0.10;0.10;;;;;;;30.67;36.29;97070.31;5028297;28;20045;-67
2021/07/22 06:28:00;;;;;;;0.10;0.10;;;;;;;30.56;36.26;97083.72;5049175;28;20060;-68
2021/07/22 06:30:26;;;;;;;0.10;0.10;;;;;;;30.42;36.12;97089.41;5027854;28;20042;-66
2021/07/22 06:32:52;;;;;;;0.10;0.10;;;;;;;30.15;36.27;97084.19;5026743;28;20038;-66
2021/07/22 06:35:18;;;;;;;0.10;0.10;;;;;;;29.97;36.29;97093.53;5027054;28;20117;-67
2021/07/22 06:37:47;;;;;;;0.25;0.25;;;;;;;29.80;36.01;97089.50;5027882;28;20045;-67
2021/07/22 06:40:14;;;;;;;0.20;0.20;;;;;;;29.62;36.48;97075.34;5026700;28;20041;-67
2021/07/22 06:42:40;;;;;;;0.40;0.40;;;;;;;29.56;36.43;97062.81;5025861;28;20048;-67
2021/07/22 06:45:06;;;;;;;0.10;0.10;;;;;;;29.52;36.09;97073.34;5027919;28;20055;-68
2021/07/22 06:47:36;;;;;;;0.20;0.20;;;;;;;29.44;35.89;97074.53;5026681;28;20062;-67
2021/07/22 06:50:01;;;;;;;0.10;0.10;;;;;;;29.31;36.06;97077.78;5026512;28;20116;-68
2021/07/22 06:52:27;;;;;;;0.00;0.00;;;;;;;29.28;35.92;97074.91;5027997;28;20133;-68
2021/07/22 06:54:53;;;;;;;0.45;0.45;;;;;;;29.15;36.04;97080.94;5026544;28;20050;-68
2021/07/22 06:57:19;;;;;;;0.10;0.10;;;;;;;29.06;35.74;97072.03;5027017;28;20041;-69
2021/07/22 06:59:44;;;;;;;0.00;0.00;;;;;;;28.88;36.13;97063.50;5027682;28;20041;-68
2021/07/22 07:02:10;;;;;;;0.25;0.20;;;;;;;28.80;36.14;97062.69;5025289;28;20035;-69
2021/07/22 07:04:36;;;;;;;0.20;0.10;;;;;;;28.91;35.73;97044.97;5027142;28;20460;-67
2021/07/22 07:07:01;;;;;;;0.25;0.25;;;;;;;29.12;35.41;97053.50;5026279;28;20037;-67
2021/07/22 07:09:27;;;;;;;0.32;0.22;;;;;;;29.19;35.38;97047.03;5028138;28;20041;-68
2021/07/22 07:11:53;;;;;;;0.20;0.20;;;;;;;29.04;35.53;97036.91;5024614;28;20045;-68
2021/07/22 07:14:19;;;;;;;0.10;0.10;;;;;;;28.75;35.93;97048.16;5025367;28;20034;-68
2021/07/22 07:16:44;;;;;;;0.20;0.20;;;;;;;28.70;35.97;97045.72;5022676;28;20267;-69
2021/07/22 07:19:10;;;;;;;0.25;0.25;;;;;;;28.78;35.65;97047.34;5023230;28;20034;-68
2021/07/22 07:21:37;;;;;;;0.95;0.40;;;;;;;28.84;35.69;97031.63;5023979;28;20136;-67
2021/07/22 07:24:04;;;;;;;0.30;0.30;;;;;;;28.90;35.40;97041.34;5022943;28;20038;-67
2021/07/22 07:26:29;;;;;;;3.30;0.30;;;;;;;28.82;35.76;97039.69;5020733;28;20579;-67
2021/07/22 07:28:55;;;;;;;0.30;0.25;;;;;;;28.66;35.72;97043.66;5024165;28;20041;-67
2021/07/22 07:31:24;;;;;;;0.20;0.20;;;;;;;28.44;35.79;97037.09;5022862;28;20088;-67
2021/07/22 07:33:50;;;;;;;0.50;0.30;;;;;;;28.10;36.39;97037.34;5022178;28;20073;-68
2021/07/22 07:36:16;;;;;;;2.50;0.55;;;;;;;27.90;36.48;97039.66;5023513;28;20061;-68
2021/07/22 07:38:42;;;;;;;0.20;0.20;;;;;;;27.87;36.73;97046.06;5021688;28;20048;-68
2021/07/22 07:41:08;;;;;;;0.30;0.22;;;;;;;27.86;36.28;97038.81;5023898;28;20103;-68
2021/07/22 07:43:49;;;;;;;0.22;0.22;;;;;;;27.94;36.38;97039.66;5021208;28;20042;-67
2021/07/22 07:46:14;;;;;;;2.30;0.28;;;;;;;28.19;35.76;97028.53;5023006;28;20048;-68
2021/07/22 07:48:40;;;;;;;0.20;0.20;;;;;;;28.46;35.46;97026.25;5025171;28;20090;-69
2021/07/22 07:51:08;;;;;;;0.10;0.10;;;;;;;28.48;35.36;97018.19;5033179;28;20042;-67
2021/07/22 07:53:35;;;;;;;0.60;0.30;;;;;;;28.32;35.60;97006.44;5025344;28;20047;-69
2021/07/22 07:56:01;;;;;;;0.20;0.20;;;;;;;28.21;35.83;97012.03;5024042;28;20049;-67
2021/07/22 07:58:27;;;;;;;0.10;0.10;;;;;;;28.21;35.84;97009.22;5020066;28;20096;-69
2021/07/22 08:00:52;;;;;;;0.10;0.10;;;;;;;28.23;35.76;97017.28;5024295;28;20037;-69
2021/07/22 08:03:20;;;;;;;0.25;0.10;;;;;;;28.23;36.07;97012.44;5031961;28;20060;-68
2021/07/22 08:05:47;;;;;;;0.20;0.20;;;;;;;28.19;36.13;97011.59;5033810;28;20049;-68
2021/07/22 08:08:13;;;;;;;0.35;0.25;;;;;;;28.26;35.63;97020.09;5033545;28;20037;-68
2021/07/22 08:10:42;;;;;;;0.20;0.20;;;;;;;28.41;35.68;97020.16;5013498;28;20037;-67
2021/07/22 08:13:09;;;;;;;0.20;0.20;;;;;;;28.56;35.35;97009.72;5013164;28;20599;-67
2021/07/22 08:15:35;;;;;;;0.20;0.20;;;;;;;28.69;35.14;97010.22;5013414;28;20041;-69
2021/07/22 08:18:01;;;;;;;0.70;0.30;;;;;;;28.70;35.13;97014.66;5013174;28;20065;-69
2021/07/22 08:20:26;;;;;;;0.10;0.10;;;;;;;28.62;35.35;96996.88;5011613;28;20068;-70
2021/07/22 08:22:52;;;;;;;0.47;0.47;;;;;;;28.60;35.20;97000.09;5013074;28;20532;-68
2021/07/22 08:25:18;;;;;;;0.10;0.10;;;;;;;28.68;35.25;96992.47;5013677;28;20515;-70
2021/07/22 08:27:45;;;;;;;0.20;0.20;;;;;;;28.71;34.87;96990.84;5011637;28;20041;-69
2021/07/22 08:30:11;;;;;;;0.00;0.00;;;;;;;28.64;35.39;96986.00;5018454;28;20045;-67
2021/07/22 08:32:37;;;;;;;0.88;0.25;;;;;;;28.56;35.42;96992.78;5021020;28;20049;-68
2021/07/22 08:35:43;;;;;;;0.10;0.10;;;;;;;28.51;35.26;96968.59;5013846;28;20040;-67
2021/07/22 08:44:56;;;;;;;0.10;0.10;;;;;;;28.24;35.66;96963.28;5011081;28;20092;-69
2021/07/22 08:47:21;;;;;;;0.40;0.40;;;;;;;28.35;35.39;96954.81;5013736;28;20046;-69
2021/07/22 08:49:48;;;;;;;0.00;0.00;;;;;;;28.44;35.22;96951.63;5013703;28;20124;-67
2021/07/22 08:52:14;;;;;;;0.10;0.10;;;;;;;28.44;35.28;96955.25;5013435;28;20108;-69
2021/07/22 08:54:40;;;;;;;0.20;0.20;;;;;;;28.42;35.40;96956.88;5013227;28;20049;-65
2021/07/22 08:57:07;;;;;;;0.30;0.30;;;;;;;28.37;35.43;96958.06;5013125;28;20062;-66
2021/07/22 08:59:33;;;;;;;0.38;0.20;;;;;;;28.27;35.61;96954.00;5026328;28;20127;-68
2021/07/22 09:02:00;;;;;;;0.35;0.15;;;;;;;28.12;35.89;96946.69;5033127;28;20156;-68
2021/07/22 09:04:29;;;;;;;0.20;0.20;;;;;;;27.87;36.03;96944.56;5021729;28;20056;-69
2021/07/22 09:06:58;;;;;;;0.05;0.05;;;;;;;27.56;36.66;96941.16;5022258;28;20128;-67
2021/07/22 09:09:23;;;;;;;0.10;0.10;;;;;;;27.47;36.67;96942.69;5020622;28;20097;-69
2021/07/22 09:11:59;;;;;;;0.30;0.30;;;;;;;27.62;36.39;96927.50;5021043;28;20071;-69
2021/07/22 09:14:28;;;;;;;0.20;0.20;;;;;;;27.78;36.46;96924.34;5021383;28;20041;-68
2021/07/22 09:16:55;;;;;;;0.20;0.10;;;;;;;27.74;36.16;96915.06;5020663;28;20045;-67
2021/07/22 09:19:40;;;;;;;0.70;0.52;;;;;;;27.70;36.22;96902.97;5020305;28;20073;-68
2021/07/22 09:22:08;;;;;;;0.10;0.10;;;;;;;27.63;36.24;96898.09;5021305;28;20061;-68
2021/07/22 09:24:50;;;;;;;0.10;0.10;;;;;;;27.60;36.40;96902.50;5020456;28;20128;-69
2021/07/22 09:27:41;;;;;;;0.00;0.00;;;;;;;27.51;36.65;96899.22;5022289;28;20092;-68
2021/07/22 09:30:09;;;;;;;0.10;0.10;;;;;;;27.36;36.59;96895.53;5021209;28;20048;-68
2021/07/22 09:32:38;;;;;;;0.10;0.10;;;;;;;27.24;36.78;96879.72;5020259;28;20050;-70
2021/07/22 09:35:29;;;;;;;0.10;0.10;;;;;;;27.07;36.95;96884.03;5022017;28;20041;-67
2021/07/22 09:37:56;;;;;;;0.55;0.55;;;;;;;26.87;37.23;96877.03;5017161;28;20050;-68
2021/07/22 09:40:25;;;;;;;0.20;0.20;;;;;;;26.83;37.45;96868.56;5021806;28;20518;-66
2021/07/22 09:42:56;;;;;;;0.10;0.10;;;;;;;26.88;37.01;96873.03;5021317;28;20056;-67
2021/07/22 09:45:24;;;;;;;0.10;0.10;;;;;;;26.87;36.95;96860.97;5020448;28;20049;-66
2021/07/22 09:47:51;;;;;;;0.65;0.40;;;;;;;26.87;37.05;96855.34;5020892;28;20063;-67
2021/07/22 09:50:19;;;;;;;0.20;0.20;;;;;;;26.93;36.85;96841.72;5021972;28;20128;-67
2021/07/22 09:52:46;;;;;;;0.10;0.10;;;;;;;26.89;36.90;96827.59;5023066;28;20046;-66
2021/07/22 09:55:29;;;;;;;0.10;0.10;;;;;;;26.81;36.89;96823.13;5032648;28;20038;-68
2021/07/22 09:58:13;;;;;;;0.10;0.10;;;;;;;26.67;37.43;96818.19;5022946;28;20037;-67
2021/07/22 10:00:42;;;;;;;;;;;;;;;26.60;37.41;96837.00;5022597;28;20119;-68
2021/07/22 10:03:16;;;;;;;0.10;0.10;;;;;;;26.68;37.14;96816.19;5020765;28;20419;-67
2021/07/22 10:06:08;;;;;;;0.60;0.40;;;;;;;26.86;37.06;96797.41;5020333;28;20506;-68
2021/07/22 10:08:35;;;;;;;0.35;0.20;;;;;;;27.08;36.56;96794.72;5020662;28;20499;-67
2021/07/22 10:11:04;;;;;;;0.00;0.00;;;;;;;27.34;36.38;96788.03;5019874;28;20056;-67
2021/07/22 10:13:35;;;;;;;0.45;0.45;;;;;;;27.49;36.34;96777.63;5019884;28;20092;-68
2021/07/22 10:16:05;;;;;;;0.10;0.10;;;;;;;27.41;36.38;96773.16;5021526;28;20044;-67
2021/07/22 10:18:33;;;;;;;1.65;0.25;;;;;;;27.42;36.34;96763.53;5027044;28;20136;-68
2021/07/22 10:21:02;;;;;;;0.22;0.20;;;;;;;27.58;36.19;96771.63;5020820;28;20046;-68
2021/07/22 10:23:28;;;;;;;0.10;0.10;;;;;;;27.37;36.49;96759.06;5019943;28;20038;-68
2021/07/22 10:25:55;;;;;;;0.08;0.08;;;;;;;27.27;36.69;96763.41;5019616;28;20420;-68
2021/07/22 10:28:21;;;;;;;0.15;0.15;;;;;;;27.15;36.97;96746.88;5020513;28;20107;-66
2021/07/22 10:30:47;;;;;;;0.10;0.10;;;;;;;27.03;37.03;96747.19;5020114;28;20049;-67
2021/07/22 10:33:19;;;;;;;0.10;0.10;;;;;;;26.87;37.25;96728.63;5022991;28;20038;-68
2021/07/22 10:35:46;;;;;;;0.10;0.10;;;;;;;26.81;37.51;96733.03;5020138;28;20038;-71
2021/07/22 10:38:23;;;;;;;0.10;0.10;;;;;;;26.72;37.55;96724.09;5020340;28;20069;-68
2021/07/22 10:41:01;;;;;;;0.10;0.10;;;;;;;26.63;37.51;96721.59;5017724;28;20444;-66
2021/07/22 10:43:30;;;;;;;0.20;0.20;;;;;;;26.57;37.66;96704.31;5018841;28;20053;-68
2021/07/22 10:45:56;;;;;;;0.10;0.10;;;;;;;26.68;37.14;96710.03;5018918;28;20083;-68
2021/07/22 10:48:28;;;;;;;0.28;0.10;;;;;;;26.86;37.08;96696.03;5022884;28;20500;-69
2021/07/22 10:50:54;;;;;;;0.00;0.00;;;;;;;27.05;36.53;96697.72;5023534;28;20037;-66
2021/07/22 10:53:37;;;;;;;0.10;0.10;;;;;;;27.06;37.00;96681.63;5024995;28;20052;-66
2021/07/22 10:56:07;;;;;;;0.10;0.10;;;;;;;27.02;36.86;96676.00;5023187;28;20048;-68
2021/07/22 10:58:33;;;;;;;0.47;0.45;;;;;;;27.11;36.71;96689.72;5022940;28;20038;-68
2021/07/22 11:01:04;;;;;;;0.10;0.10;;;;;;;27.17;36.73;96676.84;5022756;28;20040;-68
2021/07/22 11:03:35;;;;;;;0.10;0.10;;;;;;;27.21;36.71;96676.88;5025614;28;20127;-70
2021/07/22 11:06:05;;;;;;;0.10;0.10;;;;;;;27.46;36.36;96665.72;5035299;28;20041;-70
2021/07/22 11:08:42;;;;;;;0.20;0.20;;;;;;;27.78;36.09;96673.38;5034946;28;20466;-69
2021/07/22 11:11:15;;;;;;;0.10;0.10;;;;;;;27.79;36.20;96655.28;5025304;28;20041;-71
2021/07/22 11:13:47;;;;;;;0.10;0.10;;;;;;;27.52;36.67;96658.47;5023458;28;20041;-71
2021/07/22 11:16:26;;;;;;;0.28;0.25;;;;;;;27.30;36.96;96659.56;5023242;28;20054;-70
2021/07/22 11:19:03;;;;;;;0.10;0.10;;;;;;;27.44;36.91;96656.81;5023056;28;20046;-71
2021/07/22 11:21:30;;;;;;;0.10;0.10;;;;;;;27.61;36.82;96650.41;5023013;28;20038;-69
2021/07/22 11:23:59;;;;;;;0.20;0.20;;;;;;;27.74;36.51;96658.50;5023948;28;20052;-71
2021/07/22 11:26:33;;;;;;;0.20;0.20;;;;;;;27.69;36.45;96644.78;5024666;28;20095;-71
2021/07/22 11:29:01;;;;;;;0.20;0.20;;;;;;;27.40;36.98;96641.91;5024050;28;20121;-70
2021/07/22 11:31:30;;;;;;;0.13;0.13;;;;;;;27.02;37.60;96647.84;5021829;28;20081;-70
2021/07/22 11:34:00;;;;;;;0.10;0.10;;;;;;;26.74;38.37;96638.06;5021502;28;20557;-69
2021/07/22 11:36:26;;;;;;;0.38;0.38;;;;;;;26.66;38.43;96639.19;5021693;28;20084;-70
2021/07/22 11:38:53;;;;;;;0.10;0.10;;;;;;;26.53;38.38;96638.75;5023462;28;20045;-70
2021/07/22 11:41:20;;;;;;;0.10;0.10;;;;;;;26.30;38.84;96618.50;5022487;28;20401;-69
2021/07/22 11:43:56;;;;;;;0.57;0.57;;;;;;;26.11;39.00;96614.78;5024366;28;20519;-70
2021/07/22 11:46:44;;;;;;;0.43;0.25;;;;;;;25.95;39.29;96631.09;5024070;28;20030;-71
2021/07/22 11:49:44;;;;;;;0.20;0.20;;;;;;;25.88;39.66;96627.03;5023092;28;20131;-72
2021/07/22 11:52:10;;;;;;;0.10;0.10;;;;;;;25.82;39.39;96634.19;5019693;28;20060;-73
2021/07/22 11:54:35;;;;;;;0.30;0.30;;;;;;;25.82;39.41;96644.63;5020781;28;20045;-72
2021/07/22 11:57:01;;;;;;;3.03;0.47;;;;;;;25.83;39.13;96638.63;5027105;28;20045;-71
2021/07/22 11:59:32;;;;;;;0.85;0.40;;;;;;;25.88;39.06;96629.84;5034500;28;20029;-71
2021/07/22 12:01:59;;;;;;;0.45;0.45;;;;;;;25.94;39.13;96629.47;5025619;28;20034;-69
2021/07/22 12:04:26;;;;;;;0.10;0.10;;;;;;;26.03;39.11;96638.41;5023384;28;20041;-71
2021/07/22 12:06:53;;;;;;;0.10;0.10;;;;;;;26.13;38.79;96625.63;5023337;28;20540;-71
2021/07/22 12:09:18;;;;;;;0.20;0.20;;;;;;;26.21;38.79;96638.56;5028387;28;20067;-69
2021/07/22 12:11:55;;;;;;;0.65;0.43;;;;;;;26.29;38.74;96616.91;5030009;28;20127;-71
2021/07/22 12:14:38;;;;;;;0.10;0.10;;;;;;;26.37;38.43;96610.13;5022546;28;20432;-71
2021/07/22 12:17:10;;;;;;;0.00;0.00;;;;;;;26.36;38.60;96612.09;5027394;28;20045;-67
2021/07/22 12:19:39;;;;;;;0.00;0.00;;;;;;;26.37;38.50;96622.16;5029790;28;20454;-70
2021/07/22 12:22:39;;;;;;;0.10;0.10;;;;;;;26.33;38.97;96598.03;5029852;28;20499;-68
2021/07/22 12:25:07;;;;;;;0.10;0.10;;;;;;;26.20;38.92;96591.94;5033855;28;20052;-70
2021/07/22 12:28:15;;;;;;;0.08;0.08;;;;;;;26.12;39.20;96584.63;5033863;28;20048;-70
2021/07/22 12:31:33;;;;;;;0.05;0.05;;;;;;;26.13;39.45;96566.56;5033663;28;20053;-74
2021/07/22 12:34:33;;;;;;;0.28;0.28;;;;;;;26.17;39.41;96556.94;5011015;28;20037;-70
2021/07/22 12:36:58;;;;;;;0.50;0.35;;;;;;;26.14;38.98;96552.13;5048574;28;20567;-73
2021/07/22 12:39:30;;;;;;;0.32;0.30;;;;;;;26.06;39.29;96544.84;5033624;28;20041;-71